หน้าหลัก
METAR-TAF:

METAR-TAF

ท่าอากาศยาน :

Waddington, อังกฤษ

ละติจูด: 53-10N, ลองจิจูด: 000-31W, ความสูง: 68 ม.

การสังเกตสภาพอากาศปัจจุบัน

รายงานได้ทำขึ้นเมื่อ 29 นาทีที่แล้ว ณ เวลา 03:50 UTC
ลม 2 นอตจากตะวันตก
อุณหภูมิ 8°C
ความชื้น 81%
ความกดอากาศ 1014 hPa
ทัศนวิสัย 10 กม. หรือมากกว่า

METAR: EGXW 130350Z AUTO 27002KT 9999 NCD 08/05 Q1014

เวลา: 05:19 (04:19 UTC)

การพยากรณ์

รายงานได้ทำขึ้นเมื่อ 11 ชั่วโมงและ 56 นาทีที่แล้ว ณ เวลา 16:23 UTC
การพยากรณ์มีผลตั้งแต่วันที่ 12 ณ เวลา 18 UTC จนถึงวันที่ 13 ณ เวลา 12 UTC
ลม 7 นอตจากตะวันตก/ตะวันตกเฉียงเหนือ
ทัศนวิสัย 10 กม. หรือมากกว่า
มีเมฆน้อยที่ความสูง 4000 ฟุต

TAF: EGXW 121623Z 1218/1312 29007KT 9999 FEW040

สังเกตการณ์สภาพอากาศและพยากรณ์อากาศของสนามบินมากกว่า 4000 แห่ง (รายงาน METAR และ TAF).

สถานีที่ดูได้จะแสดงไว้ด้วยจุดสีเหลืองและสีแดงบนแผนที่.

เลื่อนเมาส์ไปเหนือจุดเพื่อดูชื่อสถานี.

แล้วคลิกเพื่อดูสังเกตการณ์และการพยากรณ์สภาพอากาศ.

ในการเปลี่ยนแผนที่: คลิกที่ปุ่มสีเขียวที่มีกากบาทสีดำเพื่อซูมเข้า; ที่ปุ่มสีเขียวที่มีขีดเพื่อซูมออก; หรือที่ลูกศรสีเขียวเพื่อไปยังแผนที่ที่อยู่ติดกัน.


METAR-TAF: